sensor_id;sensor_type;location;lat;lon;timestamp;pressure;altitude;pressure_sealevel;temperature;humidity
6020;BME280;3038;51.122;6.840;2023-09-30T20:08:33;102151.59;;;15.96;80.04
6020;BME280;3038;51.122;6.840;2023-09-30T20:10:59;102145.81;;;15.82;81.03
6020;BME280;3038;51.122;6.840;2023-09-30T20:13:24;102143.09;;;15.74;80.87
6020;BME280;3038;51.122;6.840;2023-09-30T20:15:50;102145.47;;;15.59;81.75
6020;BME280;3038;51.122;6.840;2023-09-30T20:18:15;102134.88;;;15.50;81.88
6020;BME280;3038;51.122;6.840;2023-09-30T20:20:40;102137.81;;;15.38;82.16
6020;BME280;3038;51.122;6.840;2023-09-30T20:23:06;102128.34;;;15.26;82.88
6020;BME280;3038;51.122;6.840;2023-09-30T20:25:31;102124.56;;;15.11;83.93
6020;BME280;3038;51.122;6.840;2023-09-30T20:27:57;102118.63;;;14.99;84.50
6020;BME280;3038;51.122;6.840;2023-09-30T20:30:24;102123.59;;;14.94;84.41
6020;BME280;3038;51.122;6.840;2023-09-30T20:32:53;102134.03;;;14.87;84.55
6020;BME280;3038;51.122;6.840;2023-09-30T20:35:19;102136.63;;;14.79;85.34
6020;BME280;3038;51.122;6.840;2023-09-30T20:37:44;102131.69;;;14.67;86.17
6020;BME280;3038;51.122;6.840;2023-09-30T20:40:10;102126.09;;;14.60;85.64
6020;BME280;3038;51.122;6.840;2023-09-30T20:42:39;102129.38;;;14.54;86.07
6020;BME280;3038;51.122;6.840;2023-09-30T20:45:05;102139.97;;;14.46;86.42
6020;BME280;3038;51.122;6.840;2023-09-30T20:47:33;102147.56;;;14.40;86.62
6020;BME280;3038;51.122;6.840;2023-09-30T20:49:59;102149.56;;;14.38;86.95
6020;BME280;3038;51.122;6.840;2023-09-30T20:52:24;102146.22;;;14.36;86.76
6020;BME280;3038;51.122;6.840;2023-09-30T20:54:49;102149.44;;;14.30;87.36
6020;BME280;3038;51.122;6.840;2023-09-30T20:57:15;102149.91;;;14.26;87.51
6020;BME280;3038;51.122;6.840;2023-09-30T20:59:40;102143.31;;;14.20;88.20
6020;BME280;3038;51.122;6.840;2023-09-30T21:02:05;102153.47;;;14.17;87.63
6020;BME280;3038;51.122;6.840;2023-09-30T21:04:32;102152.22;;;14.11;88.51
6020;BME280;3038;51.122;6.840;2023-09-30T21:07:00;102156.72;;;14.10;89.02
6020;BME280;3038;51.122;6.840;2023-09-30T21:09:25;102150.84;;;14.07;89.25
6020;BME280;3038;51.122;6.840;2023-09-30T21:11:51;102144.13;;;14.03;89.23
6020;BME280;3038;51.122;6.840;2023-09-30T21:14:18;102142.72;;;13.99;89.49
6020;BME280;3038;51.122;6.840;2023-09-30T21:16:43;102132.34;;;13.96;90.28
6020;BME280;3038;51.122;6.840;2023-09-30T21:19:09;102140.09;;;13.89;90.58
6020;BME280;3038;51.122;6.840;2023-09-30T21:21:36;102136.59;;;13.88;90.82
6020;BME280;3038;51.122;6.840;2023-09-30T21:24:02;102150.91;;;13.87;90.54
6020;BME280;3038;51.122;6.840;2023-09-30T21:26:28;102153.75;;;13.86;90.49
6020;BME280;3038;51.122;6.840;2023-09-30T21:28:53;102162.19;;;13.81;90.62
6020;BME280;3038;51.122;6.840;2023-09-30T21:31:21;102157.44;;;13.75;90.83
6020;BME280;3038;51.122;6.840;2023-09-30T21:33:49;102141.69;;;13.72;90.40
6020;BME280;3038;51.122;6.840;2023-09-30T21:36:16;102154.09;;;13.73;91.01
6020;BME280;3038;51.122;6.840;2023-09-30T21:38:41;102154.09;;;13.73;91.09
6020;BME280;3038;51.122;6.840;2023-09-30T21:41:11;102151.53;;;13.72;91.42
6020;BME280;3038;51.122;6.840;2023-09-30T21:43:37;102156.31;;;13.68;91.00
6020;BME280;3038;51.122;6.840;2023-09-30T21:46:02;102160.28;;;13.64;91.21
6020;BME280;3038;51.122;6.840;2023-09-30T21:48:29;102157.47;;;13.56;91.47
6020;BME280;3038;51.122;6.840;2023-09-30T21:50:54;102162.56;;;13.49;91.59
6020;BME280;3038;51.122;6.840;2023-09-30T21:53:19;102159.19;;;13.47;92.11
6020;BME280;3038;51.122;6.840;2023-09-30T21:55:45;102168.34;;;13.45;91.97
6020;BME280;3038;51.122;6.840;2023-09-30T21:58:10;102165.94;;;13.42;92.61
6020;BME280;3038;51.122;6.840;2023-09-30T22:00:35;102164.25;;;13.41;92.61
6020;BME280;3038;51.122;6.840;2023-09-30T22:03:09;102163.41;;;13.40;92.73
6020;BME280;3038;51.122;6.840;2023-09-30T22:05:39;102158.38;;;13.37;93.65
6020;BME280;3038;51.122;6.840;2023-09-30T22:08:06;102150.78;;;13.32;94.73
6020;BME280;3038;51.122;6.840;2023-09-30T22:10:32;102147.28;;;13.32;95.23
6020;BME280;3038;51.122;6.840;2023-09-30T22:12:58;102147.84;;;13.35;95.11
6020;BME280;3038;51.122;6.840;2023-09-30T22:15:24;102150.19;;;13.38;95.26
6020;BME280;3038;51.122;6.840;2023-09-30T22:17:51;102144.88;;;13.38;95.33
6020;BME280;3038;51.122;6.840;2023-09-30T22:20:17;102144.59;;;13.42;95.23
6020;BME280;3038;51.122;6.840;2023-09-30T22:22:42;102146.28;;;13.43;94.65
6020;BME280;3038;51.122;6.840;2023-09-30T22:25:11;102145.59;;;13.41;94.72
6020;BME280;3038;51.122;6.840;2023-09-30T22:27:37;102149.94;;;13.42;94.85
6020;BME280;3038;51.122;6.840;2023-09-30T22:30:05;102150.09;;;13.40;94.78
6020;BME280;3038;51.122;6.840;2023-09-30T22:32:33;102139.69;;;13.37;94.59
6020;BME280;3038;51.122;6.840;2023-09-30T22:34:58;102143.34;;;13.36;94.75
6020;BME280;3038;51.122;6.840;2023-09-30T22:37:24;102139.84;;;13.35;95.14
6020;BME280;3038;51.122;6.840;2023-09-30T22:39:49;102145.28;;;13.34;94.58
6020;BME280;3038;51.122;6.840;2023-09-30T22:42:14;102149.66;;;13.35;94.04
6020;BME280;3038;51.122;6.840;2023-09-30T22:44:40;102143.63;;;13.33;94.62
6020;BME280;3038;51.122;6.840;2023-09-30T22:47:05;102145.72;;;13.29;94.63
6020;BME280;3038;51.122;6.840;2023-09-30T22:49:31;102131.69;;;13.27;94.88
6020;BME280;3038;51.122;6.840;2023-09-30T22:51:56;102138.19;;;13.25;94.86
6020;BME280;3038;51.122;6.840;2023-09-30T22:54:21;102135.63;;;13.23;95.42
6020;BME280;3038;51.122;6.840;2023-09-30T22:56:47;102132.25;;;13.21;95.79
6020;BME280;3038;51.122;6.840;2023-09-30T22:59:14;102130.56;;;13.20;95.30
6020;BME280;3038;51.122;6.840;2023-09-30T23:01:40;102134.50;;;13.16;95.57
6020;BME280;3038;51.122;6.840;2023-09-30T23:04:05;102124.66;;;13.17;95.38
6020;BME280;3038;51.122;6.840;2023-09-30T23:06:31;102124.09;;;13.13;95.59
6020;BME280;3038;51.122;6.840;2023-09-30T23:08:58;102128.59;;;13.12;95.53
6020;BME280;3038;51.122;6.840;2023-09-30T23:11:23;102125.25;;;13.10;95.89
6020;BME280;3038;51.122;6.840;2023-09-30T23:13:49;102112.03;;;13.09;95.29
6020;BME280;3038;51.122;6.840;2023-09-30T23:16:16;102117.38;;;13.09;95.65
6020;BME280;3038;51.122;6.840;2023-09-30T23:18:41;102114.69;;;13.09;95.80
6020;BME280;3038;51.122;6.840;2023-09-30T23:21:08;102116.53;;;13.08;95.74
6020;BME280;3038;51.122;6.840;2023-09-30T23:23:35;102115.00;;;13.06;95.86
6020;BME280;3038;51.122;6.840;2023-09-30T23:26:01;102115.13;;;13.04;96.34
6020;BME280;3038;51.122;6.840;2023-09-30T23:28:29;102123.97;;;13.05;95.94
6020;BME280;3038;51.122;6.840;2023-09-30T23:31:01;102121.44;;;13.03;96.21
6020;BME280;3038;51.122;6.840;2023-09-30T23:33:28;102117.38;;;12.99;96.21
6020;BME280;3038;51.122;6.840;2023-09-30T23:35:54;102120.88;;;13.00;96.63
6020;BME280;3038;51.122;6.840;2023-09-30T23:38:20;102118.38;;;12.98;96.52
6020;BME280;3038;51.122;6.840;2023-09-30T23:40:47;102115.13;;;12.95;96.61
6020;BME280;3038;51.122;6.840;2023-09-30T23:43:14;102113.44;;;12.94;96.89
6020;BME280;3038;51.122;6.840;2023-09-30T23:45:40;102117.09;;;12.93;97.27
6020;BME280;3038;51.122;6.840;2023-09-30T23:48:11;102118.09;;;12.92;97.49
6020;BME280;3038;51.122;6.840;2023-09-30T23:50:37;102118.78;;;12.94;97.92
6020;BME280;3038;51.122;6.840;2023-09-30T23:53:10;102118.78;;;12.94;97.81
6020;BME280;3038;51.122;6.840;2023-09-30T23:55:36;102111.78;;;12.93;98.51
6020;BME280;3038;51.122;6.840;2023-09-30T23:58:01;102117.09;;;12.93;98.59
